Terminal Aerodrome Forecast
Issued by NWS

Home | Current Version | Previous Version | Text Only | Print | Product List | Glossary On
Versions: 1 2 3 4 5 6 7 8 9 10 11 12 13 14 15 16 17 18 19 20 21 22 23 24 25 26 27
000
FTUS46 KLOX 251100
TAFLAX
TAF
KLAX 251132Z 2512/2618 09006KT P6SM OVC010
     FM251600 26007KT P6SM SCT150
     FM252000 26012KT P6SM SCT150
     FM260400 VRB03KT P6SM SCT150
     FM260800 VRB03KT P6SM OVC012
     FM261600 26006KT P6SM SCT012=

USA.gov is the U.S. government's official web portal to all federal, state and local government web resources and services.